sensor_id;sensor_type;location;lat;lon;timestamp;pressure;altitude;pressure_sealevel;temperature;humidity
17230;BME280;8731;50.364;8.958;2023-01-04T00:02:48;101240.06;;;5.47;92.98
17230;BME280;8731;50.364;8.958;2023-01-04T00:07:10;101229.47;;;5.50;93.41
17230;BME280;8731;50.364;8.958;2023-01-04T00:11:33;101234.69;;;5.51;93.36
17230;BME280;8731;50.364;8.958;2023-01-04T00:15:55;101230.56;;;5.52;93.08
17230;BME280;8731;50.364;8.958;2023-01-04T00:20:18;101236.53;;;5.52;93.46
17230;BME280;8731;50.364;8.958;2023-01-04T00:24:41;101235.81;;;5.53;93.18
17230;BME280;8731;50.364;8.958;2023-01-04T00:29:04;101222.06;;;5.51;92.67
17230;BME280;8731;50.364;8.958;2023-01-04T00:33:27;101215.72;;;5.48;92.59
17230;BME280;8731;50.364;8.958;2023-01-04T00:37:51;101209.25;;;5.50;92.62
17230;BME280;8731;50.364;8.958;2023-01-04T00:42:13;101206.22;;;5.52;92.72
17230;BME280;8731;50.364;8.958;2023-01-04T00:46:36;101194.28;;;5.51;92.92
17230;BME280;8731;50.364;8.958;2023-01-04T00:50:59;101196.81;;;5.51;93.25
17230;BME280;8731;50.364;8.958;2023-01-04T00:55:23;101190.34;;;5.53;93.52
17230;BME280;8731;50.364;8.958;2023-01-04T00:59:45;101182.56;;;5.52;93.38
17230;BME280;8731;50.364;8.958;2023-01-04T01:04:10;101176.81;;;5.53;93.76
17230;BME280;8731;50.364;8.958;2023-01-04T01:08:34;101162.38;;;5.52;93.65
17230;BME280;8731;50.364;8.958;2023-01-04T01:12:58;101154.22;;;5.47;91.93
17230;BME280;8731;50.364;8.958;2023-01-04T01:17:20;101158.44;;;5.41;92.23
17230;BME280;8731;50.364;8.958;2023-01-04T01:21:43;101147.44;;;5.41;91.25
17230;BME280;8731;50.364;8.958;2023-01-04T01:26:07;101147.34;;;5.46;92.54
17230;BME280;8731;50.364;8.958;2023-01-04T01:30:33;101130.06;;;5.49;93.31
17230;BME280;8731;50.364;8.958;2023-01-04T01:34:59;101136.97;;;5.38;93.63
17230;BME280;8731;50.364;8.958;2023-01-04T01:39:21;101134.94;;;5.35;94.63
17230;BME280;8731;50.364;8.958;2023-01-04T01:43:50;101132.75;;;5.31;94.71
17230;BME280;8731;50.364;8.958;2023-01-04T01:48:17;101142.25;;;5.27;94.29
17230;BME280;8731;50.364;8.958;2023-01-04T01:52:43;101126.34;;;5.20;95.05
17230;BME280;8731;50.364;8.958;2023-01-04T01:57:08;101124.00;;;5.22;94.90
17230;BME280;8731;50.364;8.958;2023-01-04T02:01:34;101112.50;;;5.24;94.84
17230;BME280;8731;50.364;8.958;2023-01-04T02:05:59;101100.78;;;5.24;94.72
17230;BME280;8731;50.364;8.958;2023-01-04T02:10:25;101097.34;;;5.24;94.35
17230;BME280;8731;50.364;8.958;2023-01-04T02:14:49;101108.34;;;5.24;95.57
17230;BME280;8731;50.364;8.958;2023-01-04T02:19:27;101107.44;;;5.24;96.13
17230;BME280;8731;50.364;8.958;2023-01-04T02:24:28;101093.41;;;5.26;96.58
17230;BME280;8731;50.364;8.958;2023-01-04T02:29:34;101069.19;;;5.21;94.53
17230;BME280;8731;50.364;8.958;2023-01-04T02:34:38;101052.81;;;5.24;95.24
17230;BME280;8731;50.364;8.958;2023-01-04T02:39:13;101050.47;;;5.26;96.06
17230;BME280;8731;50.364;8.958;2023-01-04T02:43:51;101056.81;;;5.30;95.94
17230;BME280;8731;50.364;8.958;2023-01-04T02:48:36;101050.66;;;5.28;95.06
17230;BME280;8731;50.364;8.958;2023-01-04T02:53:20;101054.88;;;5.34;94.19
17230;BME280;8731;50.364;8.958;2023-01-04T02:57:53;101067.16;;;5.38;94.16
17230;BME280;8731;50.364;8.958;2023-01-04T03:02:36;101055.91;;;5.49;95.68
17230;BME280;8731;50.364;8.958;2023-01-04T03:07:34;101055.59;;;5.53;97.45
17230;BME280;8731;50.364;8.958;2023-01-04T03:12:05;101047.53;;;5.63;98.23
17230;BME280;8731;50.364;8.958;2023-01-04T03:16:49;101032.03;;;5.67;96.75
17230;BME280;8731;50.364;8.958;2023-01-04T03:21:13;101013.00;;;5.76;97.32
17230;BME280;8731;50.364;8.958;2023-01-04T03:25:39;101012.84;;;5.81;97.03
17230;BME280;8731;50.364;8.958;2023-01-04T03:30:26;101002.59;;;5.87;96.09
17230;BME280;8731;50.364;8.958;2023-01-04T03:35:08;101003.00;;;5.90;96.36
17230;BME280;8731;50.364;8.958;2023-01-04T03:39:58;100990.78;;;6.00;96.60
17230;BME280;8731;50.364;8.958;2023-01-04T03:44:47;100988.28;;;6.07;98.44
17230;BME280;8731;50.364;8.958;2023-01-04T03:49:38;100970.63;;;6.14;97.42
17230;BME280;8731;50.364;8.958;2023-01-04T03:54:08;100965.81;;;6.23;98.59
17230;BME280;8731;50.364;8.958;2023-01-04T03:58:35;100959.84;;;6.30;97.54
17230;BME280;8731;50.364;8.958;2023-01-04T04:02:57;100950.47;;;6.36;99.38
17230;BME280;8731;50.364;8.958;2023-01-04T04:07:27;100939.31;;;6.41;98.64
17230;BME280;8731;50.364;8.958;2023-01-04T04:12:08;100936.25;;;6.43;100.00
17230;BME280;8731;50.364;8.958;2023-01-04T04:16:30;100927.22;;;6.45;98.34
17230;BME280;8731;50.364;8.958;2023-01-04T04:20:56;100927.22;;;6.53;99.32
17230;BME280;8731;50.364;8.958;2023-01-04T04:25:20;100914.75;;;6.54;98.54
17230;BME280;8731;50.364;8.958;2023-01-04T04:29:42;100910.44;;;6.60;98.92
17230;BME280;8731;50.364;8.958;2023-01-04T04:34:04;100896.56;;;6.64;99.11
17230;BME280;8731;50.364;8.958;2023-01-04T04:38:27;100899.41;;;6.60;97.66
17230;BME280;8731;50.364;8.958;2023-01-04T04:42:50;100878.63;;;6.62;97.54
17230;BME280;8731;50.364;8.958;2023-01-04T04:47:12;100884.06;;;6.72;99.07
17230;BME280;8731;50.364;8.958;2023-01-04T04:51:35;100877.56;;;6.67;98.65
17230;BME280;8731;50.364;8.958;2023-01-04T04:55:58;100877.94;;;6.70;98.09
17230;BME280;8731;50.364;8.958;2023-01-04T05:00:22;100866.72;;;6.75;98.54
17230;BME280;8731;50.364;8.958;2023-01-04T05:04:44;100867.63;;;6.76;98.31
17230;BME280;8731;50.364;8.958;2023-01-04T05:09:06;100859.13;;;6.75;97.52
17230;BME280;8731;50.364;8.958;2023-01-04T05:13:28;100842.50;;;6.77;97.81
17230;BME280;8731;50.364;8.958;2023-01-04T05:17:52;100849.19;;;6.77;100.00
17230;BME280;8731;50.364;8.958;2023-01-04T05:22:14;100844.28;;;6.86;99.60
17230;BME280;8731;50.364;8.958;2023-01-04T05:26:37;100834.56;;;6.89;99.51
17230;BME280;8731;50.364;8.958;2023-01-04T05:30:59;100833.25;;;6.85;98.78
17230;BME280;8731;50.364;8.958;2023-01-04T05:35:23;100825.88;;;6.87;98.34
17230;BME280;8731;50.364;8.958;2023-01-04T05:39:46;100822.97;;;6.91;98.21
17230;BME280;8731;50.364;8.958;2023-01-04T05:44:08;100818.63;;;6.97;97.54
17230;BME280;8731;50.364;8.958;2023-01-04T05:48:30;100812.66;;;6.96;97.84
17230;BME280;8731;50.364;8.958;2023-01-04T05:52:54;100801.06;;;7.05;96.54
17230;BME280;8731;50.364;8.958;2023-01-04T05:57:16;100807.75;;;7.05;96.84
17230;BME280;8731;50.364;8.958;2023-01-04T06:01:39;100811.19;;;7.05;97.05
17230;BME280;8731;50.364;8.958;2023-01-04T06:06:01;100801.22;;;7.07;96.86
17230;BME280;8731;50.364;8.958;2023-01-04T06:10:25;100805.59;;;7.15;97.14
17230;BME280;8731;50.364;8.958;2023-01-04T06:14:48;100811.72;;;7.17;95.88
17230;BME280;8731;50.364;8.958;2023-01-04T06:19:10;100806.84;;;7.19;96.53
17230;BME280;8731;50.364;8.958;2023-01-04T06:23:32;100798.84;;;7.23;97.26
17230;BME280;8731;50.364;8.958;2023-01-04T06:27:56;100802.66;;;7.19;97.84
17230;BME280;8731;50.364;8.958;2023-01-04T06:32:18;100808.81;;;7.21;96.10
17230;BME280;8731;50.364;8.958;2023-01-04T06:36:41;100796.50;;;7.24;96.70
17230;BME280;8731;50.364;8.958;2023-01-04T06:41:03;100785.13;;;7.21;96.16
17230;BME280;8731;50.364;8.958;2023-01-04T06:45:27;100761.59;;;7.22;97.03
17230;BME280;8731;50.364;8.958;2023-01-04T06:49:49;100743.69;;;7.20;97.83
17230;BME280;8731;50.364;8.958;2023-01-04T06:54:12;100735.41;;;7.14;96.61
17230;BME280;8731;50.364;8.958;2023-01-04T06:58:34;100730.53;;;7.16;96.86
17230;BME280;8731;50.364;8.958;2023-01-04T07:03:09;100738.47;;;7.19;96.50
17230;BME280;8731;50.364;8.958;2023-01-04T07:07:31;100741.94;;;7.12;96.63
17230;BME280;8731;50.364;8.958;2023-01-04T07:11:54;100764.00;;;7.13;96.57
17230;BME280;8731;50.364;8.958;2023-01-04T07:16:18;100747.31;;;7.22;96.23
17230;BME280;8731;50.364;8.958;2023-01-04T07:20:42;100747.69;;;7.18;96.37
17230;BME280;8731;50.364;8.958;2023-01-04T07:25:05;100739.03;;;7.16;96.78
17230;BME280;8731;50.364;8.958;2023-01-04T07:29:28;100724.34;;;7.21;97.30
17230;BME280;8731;50.364;8.958;2023-01-04T07:33:50;100732.72;;;7.13;98.60
17230;BME280;8731;50.364;8.958;2023-01-04T07:38:14;100729.59;;;7.22;97.15
17230;BME280;8731;50.364;8.958;2023-01-04T07:42:36;100728.16;;;7.17;97.41
17230;BME280;8731;50.364;8.958;2023-01-04T07:46:59;100725.25;;;7.21;97.35
17230;BME280;8731;50.364;8.958;2023-01-04T07:51:21;100738.09;;;7.23;97.81
17230;BME280;8731;50.364;8.958;2023-01-04T07:55:45;100736.97;;;7.28;98.16
17230;BME280;8731;50.364;8.958;2023-01-04T08:00:08;100744.00;;;7.30;98.72
17230;BME280;8731;50.364;8.958;2023-01-04T08:04:34;100744.75;;;7.29;97.92
17230;BME280;8731;50.364;8.958;2023-01-04T08:08:56;100753.06;;;7.35;97.75
17230;BME280;8731;50.364;8.958;2023-01-04T08:13:20;100755.22;;;7.39;97.92
17230;BME280;8731;50.364;8.958;2023-01-04T08:17:42;100755.03;;;7.38;98.30
17230;BME280;8731;50.364;8.958;2023-01-04T08:22:04;100753.03;;;7.43;97.26
17230;BME280;8731;50.364;8.958;2023-01-04T08:26:27;100749.53;;;7.49;96.98
17230;BME280;8731;50.364;8.958;2023-01-04T08:30:51;100733.28;;;7.47;97.32
17230;BME280;8731;50.364;8.958;2023-01-04T08:35:14;100712.78;;;7.53;97.13
17230;BME280;8731;50.364;8.958;2023-01-04T08:39:38;100698.31;;;7.52;98.25
17230;BME280;8731;50.364;8.958;2023-01-04T08:44:00;100711.31;;;7.62;98.43
17230;BME280;8731;50.364;8.958;2023-01-04T08:48:24;100714.91;;;7.64;97.68
17230;BME280;8731;50.364;8.958;2023-01-04T08:52:46;100717.22;;;7.69;98.33
17230;BME280;8731;50.364;8.958;2023-01-04T08:57:08;100711.44;;;7.70;97.70
17230;BME280;8731;50.364;8.958;2023-01-04T09:01:31;100702.53;;;7.74;97.50
17230;BME280;8731;50.364;8.958;2023-01-04T09:06:02;100707.94;;;7.77;97.78
17230;BME280;8731;50.364;8.958;2023-01-04T09:10:24;100702.84;;;7.84;97.72
17230;BME280;8731;50.364;8.958;2023-01-04T09:14:47;100710.13;;;7.81;97.56
17230;BME280;8731;50.364;8.958;2023-01-04T09:19:09;100721.31;;;7.83;97.46
17230;BME280;8731;50.364;8.958;2023-01-04T09:23:33;100696.31;;;7.86;97.83
17230;BME280;8731;50.364;8.958;2023-01-04T09:27:56;100691.56;;;7.89;98.30
17230;BME280;8731;50.364;8.958;2023-01-04T09:32:18;100700.25;;;7.91;97.96
17230;BME280;8731;50.364;8.958;2023-01-04T09:36:40;100691.91;;;7.92;98.51
17230;BME280;8731;50.364;8.958;2023-01-04T09:41:13;100707.06;;;7.99;98.92
17230;BME280;8731;50.364;8.958;2023-01-04T09:45:40;100701.09;;;7.99;98.62
17230;BME280;8731;50.364;8.958;2023-01-04T09:50:05;100706.50;;;8.02;99.01
17230;BME280;8731;50.364;8.958;2023-01-04T09:54:41;100704.50;;;8.07;99.26
17230;BME280;8731;50.364;8.958;2023-01-04T09:59:12;100695.09;;;8.06;99.09
17230;BME280;8731;50.364;8.958;2023-01-04T10:03:38;100694.69;;;8.10;98.81
17230;BME280;8731;50.364;8.958;2023-01-04T10:08:12;100693.38;;;8.13;98.48
17230;BME280;8731;50.364;8.958;2023-01-04T10:12:44;100706.56;;;8.18;99.02
17230;BME280;8731;50.364;8.958;2023-01-04T10:17:23;100692.09;;;8.17;98.83
17230;BME280;8731;50.364;8.958;2023-01-04T10:21:55;100685.13;;;8.23;99.21
17230;BME280;8731;50.364;8.958;2023-01-04T10:26:24;100683.09;;;8.27;99.34
17230;BME280;8731;50.364;8.958;2023-01-04T10:30:57;100671.63;;;8.38;98.68
17230;BME280;8731;50.364;8.958;2023-01-04T10:35:26;100669.84;;;8.37;99.20
17230;BME280;8731;50.364;8.958;2023-01-04T10:39:50;100650.13;;;8.35;98.95
17230;BME280;8731;50.364;8.958;2023-01-04T10:44:18;100647.34;;;8.40;98.92
17230;BME280;8731;50.364;8.958;2023-01-04T10:48:48;100643.31;;;8.42;98.62
17230;BME280;8731;50.364;8.958;2023-01-04T10:53:17;100646.91;;;8.44;99.16
17230;BME280;8731;50.364;8.958;2023-01-04T10:57:49;100627.34;;;8.43;98.10
17230;BME280;8731;50.364;8.958;2023-01-04T11:02:22;100638.25;;;8.42;98.41
17230;BME280;8731;50.364;8.958;2023-01-04T11:06:56;100631.63;;;8.51;98.54
17230;BME280;8731;50.364;8.958;2023-01-04T11:11:29;100639.41;;;8.53;98.92
17230;BME280;8731;50.364;8.958;2023-01-04T11:15:56;100625.84;;;8.52;97.86
17230;BME280;8731;50.364;8.958;2023-01-04T11:20:21;100622.72;;;8.55;98.19
17230;BME280;8731;50.364;8.958;2023-01-04T11:24:46;100611.59;;;8.61;98.06
17230;BME280;8731;50.364;8.958;2023-01-04T11:29:23;100611.59;;;8.61;99.11
17230;BME280;8731;50.364;8.958;2023-01-04T11:33:54;100608.16;;;8.61;99.29
17230;BME280;8731;50.364;8.958;2023-01-04T11:38:19;100601.34;;;8.69;98.43
17230;BME280;8731;50.364;8.958;2023-01-04T11:42:44;100596.00;;;8.74;99.81
17230;BME280;8731;50.364;8.958;2023-01-04T11:47:16;100577.34;;;8.74;99.03
17230;BME280;8731;50.364;8.958;2023-01-04T11:51:39;100573.25;;;8.83;100.00
17230;BME280;8731;50.364;8.958;2023-01-04T11:56:23;100560.72;;;8.84;99.92
17230;BME280;8731;50.364;8.958;2023-01-04T12:00:51;100561.19;;;8.89;99.75
17230;BME280;8731;50.364;8.958;2023-01-04T12:05:18;100553.16;;;8.93;98.46
17230;BME280;8731;50.364;8.958;2023-01-04T12:09:42;100551.09;;;8.98;99.20
17230;BME280;8731;50.364;8.958;2023-01-04T12:14:17;100536.19;;;9.01;98.01
17230;BME280;8731;50.364;8.958;2023-01-04T12:18:43;100531.75;;;9.07;99.60
17230;BME280;8731;50.364;8.958;2023-01-04T12:23:07;100518.16;;;9.06;99.24
17230;BME280;8731;50.364;8.958;2023-01-04T12:27:32;100527.88;;;9.10;99.81
17230;BME280;8731;50.364;8.958;2023-01-04T12:32:43;100517.13;;;9.13;98.26
17230;BME280;8731;50.364;8.958;2023-01-04T12:37:06;100493.66;;;9.07;98.77
17230;BME280;8731;50.364;8.958;2023-01-04T12:46:50;100477.69;;;9.16;99.88
17230;BME280;8731;50.364;8.958;2023-01-04T12:51:30;100465.16;;;9.18;100.00
17230;BME280;8731;50.364;8.958;2023-01-04T12:55:54;100460.34;;;9.12;100.00
17230;BME280;8731;50.364;8.958;2023-01-04T13:00:18;100449.31;;;9.20;100.00
17230;BME280;8731;50.364;8.958;2023-01-04T13:04:41;100445.28;;;9.22;100.00
17230;BME280;8731;50.364;8.958;2023-01-04T13:09:08;100441.84;;;9.13;100.00
17230;BME280;8731;50.364;8.958;2023-01-04T13:13:42;100435.25;;;9.15;100.00
17230;BME280;8731;50.364;8.958;2023-01-04T13:18:28;100428.09;;;9.20;100.00
17230;BME280;8731;50.364;8.958;2023-01-04T13:22:56;100411.97;;;9.19;100.00
17230;BME280;8731;50.364;8.958;2023-01-04T13:27:21;100419.75;;;9.21;100.00
17230;BME280;8731;50.364;8.958;2023-01-04T13:31:50;100405.84;;;9.17;100.00
17230;BME280;8731;50.364;8.958;2023-01-04T13:36:16;100403.94;;;9.23;100.00
17230;BME280;8731;50.364;8.958;2023-01-04T13:40:42;100394.34;;;9.21;100.00
17230;BME280;8731;50.364;8.958;2023-01-04T13:45:44;100394.78;;;9.17;100.00
17230;BME280;8731;50.364;8.958;2023-01-04T13:50:25;100382.13;;;9.26;100.00
17230;BME280;8731;50.364;8.958;2023-01-04T13:55:11;100376.59;;;9.30;100.00
17230;BME280;8731;50.364;8.958;2023-01-04T13:59:40;100369.81;;;9.21;100.00
17230;BME280;8731;50.364;8.958;2023-01-04T14:04:04;100373.63;;;9.34;100.00
17230;BME280;8731;50.364;8.958;2023-01-04T14:08:30;100357.47;;;9.33;100.00
17230;BME280;8731;50.364;8.958;2023-01-04T14:12:59;100342.69;;;9.38;100.00
17230;BME280;8731;50.364;8.958;2023-01-04T14:17:31;100355.84;;;9.42;100.00
17230;BME280;8731;50.364;8.958;2023-01-04T14:21:55;100348.69;;;9.47;100.00
17230;BME280;8731;50.364;8.958;2023-01-04T14:26:35;100345.72;;;9.51;100.00
17230;BME280;8731;50.364;8.958;2023-01-04T14:31:32;100364.84;;;9.56;100.00
17230;BME280;8731;50.364;8.958;2023-01-04T14:36:02;100355.72;;;9.58;100.00
17230;BME280;8731;50.364;8.958;2023-01-04T14:40:38;100338.25;;;9.61;100.00
17230;BME280;8731;50.364;8.958;2023-01-04T14:45:04;100341.72;;;9.70;100.00
17230;BME280;8731;50.364;8.958;2023-01-04T14:49:34;100337.78;;;9.65;100.00
17230;BME280;8731;50.364;8.958;2023-01-04T14:53:56;100338.41;;;9.71;100.00
17230;BME280;8731;50.364;8.958;2023-01-04T14:58:19;100344.25;;;9.70;100.00
17230;BME280;8731;50.364;8.958;2023-01-04T15:02:41;100339.47;;;9.73;100.00
17230;BME280;8731;50.364;8.958;2023-01-04T15:07:21;100327.78;;;9.75;100.00
17230;BME280;8731;50.364;8.958;2023-01-04T15:11:54;100330.63;;;9.78;100.00
17230;BME280;8731;50.364;8.958;2023-01-04T15:16:17;100330.47;;;9.85;100.00
17230;BME280;8731;50.364;8.958;2023-01-04T15:20:40;100332.25;;;9.87;100.00
17230;BME280;8731;50.364;8.958;2023-01-04T15:25:05;100334.06;;;9.88;100.00
17230;BME280;8731;50.364;8.958;2023-01-04T15:29:28;100332.41;;;9.88;100.00
17230;BME280;8731;50.364;8.958;2023-01-04T15:33:51;100324.50;;;9.94;100.00
17230;BME280;8731;50.364;8.958;2023-01-04T15:38:13;100321.38;;;9.96;100.00
17230;BME280;8731;50.364;8.958;2023-01-04T15:42:37;100319.72;;;9.97;100.00
17230;BME280;8731;50.364;8.958;2023-01-04T15:47:17;100304.91;;;10.01;100.00
17230;BME280;8731;50.364;8.958;2023-01-04T15:51:39;100301.44;;;10.01;100.00
17230;BME280;8731;50.364;8.958;2023-01-04T15:56:06;100298.75;;;9.99;100.00
17230;BME280;8731;50.364;8.958;2023-01-04T16:00:32;100298.91;;;10.01;100.00
17230;BME280;8731;50.364;8.958;2023-01-04T16:04:54;100290.38;;;10.00;100.00
17230;BME280;8731;50.364;8.958;2023-01-04T16:09:17;100289.47;;;10.00;100.00
17230;BME280;8731;50.364;8.958;2023-01-04T16:13:39;100273.47;;;10.01;100.00
17230;BME280;8731;50.364;8.958;2023-01-04T16:18:03;100273.63;;;10.02;100.00
17230;BME280;8731;50.364;8.958;2023-01-04T16:22:25;100268.81;;;10.05;100.00
17230;BME280;8731;50.364;8.958;2023-01-04T16:26:48;100274.06;;;10.07;100.00
17230;BME280;8731;50.364;8.958;2023-01-04T16:31:10;100268.06;;;10.06;100.00
17230;BME280;8731;50.364;8.958;2023-01-04T16:35:34;100268.22;;;10.08;100.00
17230;BME280;8731;50.364;8.958;2023-01-04T16:39:56;100267.59;;;10.19;100.00
17230;BME280;8731;50.364;8.958;2023-01-04T16:44:19;100272.38;;;10.16;100.00
17230;BME280;8731;50.364;8.958;2023-01-04T16:48:42;100270.44;;;10.13;100.00
17230;BME280;8731;50.364;8.958;2023-01-04T16:53:06;100282.13;;;10.20;100.00
17230;BME280;8731;50.364;8.958;2023-01-04T16:57:28;100282.88;;;10.19;100.00
17230;BME280;8731;50.364;8.958;2023-01-04T17:01:51;100266.13;;;10.21;100.00
17230;BME280;8731;50.364;8.958;2023-01-04T17:06:15;100269.41;;;10.20;99.99
17230;BME280;8731;50.364;8.958;2023-01-04T17:10:40;100278.84;;;10.21;100.00
17230;BME280;8731;50.364;8.958;2023-01-04T17:15:03;100274.81;;;10.23;100.00
17230;BME280;8731;50.364;8.958;2023-01-04T17:19:26;100274.97;;;10.25;100.00
17230;BME280;8731;50.364;8.958;2023-01-04T17:23:50;100264.63;;;10.23;100.00
17230;BME280;8731;50.364;8.958;2023-01-04T17:28:15;100258.03;;;10.25;100.00
17230;BME280;8731;50.364;8.958;2023-01-04T17:32:38;100251.31;;;10.26;100.00
17230;BME280;8731;50.364;8.958;2023-01-04T17:37:01;100253.09;;;10.27;100.00
17230;BME280;8731;50.364;8.958;2023-01-04T17:41:25;100252.47;;;10.29;100.00
17230;BME280;8731;50.364;8.958;2023-01-04T17:45:50;100256.81;;;10.30;100.00
17230;BME280;8731;50.364;8.958;2023-01-04T17:50:12;100246.50;;;10.29;100.00
17230;BME280;8731;50.364;8.958;2023-01-04T17:54:35;100246.22;;;10.26;100.00
17230;BME280;8731;50.364;8.958;2023-01-04T17:58:59;100234.94;;;10.32;100.00
17230;BME280;8731;50.364;8.958;2023-01-04T18:03:24;100231.38;;;10.30;100.00
17230;BME280;8731;50.364;8.958;2023-01-04T18:07:46;100224.22;;;10.26;100.00
17230;BME280;8731;50.364;8.958;2023-01-04T18:12:09;100215.06;;;10.28;100.00
17230;BME280;8731;50.364;8.958;2023-01-04T18:16:31;100211.06;;;10.22;100.00
17230;BME280;8731;50.364;8.958;2023-01-04T18:20:54;100223.59;;;10.20;100.00
17230;BME280;8731;50.364;8.958;2023-01-04T18:25:17;100222.38;;;10.16;100.00
17230;BME280;8731;50.364;8.958;2023-01-04T18:29:39;100205.34;;;10.24;100.00
17230;BME280;8731;50.364;8.958;2023-01-04T18:34:02;100206.13;;;10.23;100.00
17230;BME280;8731;50.364;8.958;2023-01-04T18:38:26;100204.00;;;10.28;100.00
17230;BME280;8731;50.364;8.958;2023-01-04T18:42:49;100209.69;;;10.25;100.00
17230;BME280;8731;50.364;8.958;2023-01-04T18:47:11;100205.34;;;10.24;100.00
17230;BME280;8731;50.364;8.958;2023-01-04T18:51:34;100204.75;;;10.27;100.00
17230;BME280;8731;50.364;8.958;2023-01-04T18:55:57;100216.84;;;10.29;100.00
17230;BME280;8731;50.364;8.958;2023-01-04T19:00:23;100231.38;;;10.30;100.00
17230;BME280;8731;50.364;8.958;2023-01-04T19:04:49;100230.94;;;10.26;100.00
17230;BME280;8731;50.364;8.958;2023-01-04T19:09:11;100229.91;;;10.24;100.00
17230;BME280;8731;50.364;8.958;2023-01-04T19:13:35;100228.41;;;10.26;100.00
17230;BME280;8731;50.364;8.958;2023-01-04T19:17:58;100230.75;;;10.33;100.00
17230;BME280;8731;50.364;8.958;2023-01-04T19:22:20;100229.88;;;10.32;100.00
17230;BME280;8731;50.364;8.958;2023-01-04T19:26:43;100228.81;;;10.30;100.00
17230;BME280;8731;50.364;8.958;2023-01-04T19:31:08;100236.88;;;10.35;100.00
17230;BME280;8731;50.364;8.958;2023-01-04T19:35:31;100236.75;;;10.33;100.00
17230;BME280;8731;50.364;8.958;2023-01-04T19:39:53;100230.47;;;10.30;100.00
17230;BME280;8731;50.364;8.958;2023-01-04T19:44:16;100226.84;;;10.36;100.00
17230;BME280;8731;50.364;8.958;2023-01-04T19:48:39;100221.75;;;10.36;100.00
17230;BME280;8731;50.364;8.958;2023-01-04T19:53:02;100222.03;;;10.39;100.00
17230;BME280;8731;50.364;8.958;2023-01-04T19:57:26;100234.63;;;10.38;100.00
17230;BME280;8731;50.364;8.958;2023-01-04T20:01:48;100251.41;;;10.36;100.00
17230;BME280;8731;50.364;8.958;2023-01-04T20:06:12;100250.66;;;10.37;100.00
17230;BME280;8731;50.364;8.958;2023-01-04T20:10:35;100250.03;;;10.39;100.00
17230;BME280;8731;50.364;8.958;2023-01-04T20:14:57;100229.25;;;10.35;100.00
17230;BME280;8731;50.364;8.958;2023-01-04T20:19:20;100237.78;;;10.35;100.00
17230;BME280;8731;50.364;8.958;2023-01-04T20:23:43;100252.59;;;10.39;100.00
17230;BME280;8731;50.364;8.958;2023-01-04T20:28:06;100259.19;;;10.37;100.00
17230;BME280;8731;50.364;8.958;2023-01-04T20:32:29;100245.69;;;10.38;100.00
17230;BME280;8731;50.364;8.958;2023-01-04T20:36:51;100231.47;;;10.40;100.00
17230;BME280;8731;50.364;8.958;2023-01-04T20:41:17;100230.44;;;10.38;100.00
17230;BME280;8731;50.364;8.958;2023-01-04T20:45:42;100244.81;;;10.38;100.00
17230;BME280;8731;50.364;8.958;2023-01-04T20:50:06;100239.44;;;10.35;100.00
17230;BME280;8731;50.364;8.958;2023-01-04T20:54:32;100230.44;;;10.38;100.00
17230;BME280;8731;50.364;8.958;2023-01-04T20:58:55;100213.97;;;10.43;100.00
17230;BME280;8731;50.364;8.958;2023-01-04T21:03:18;100215.47;;;10.41;100.00
17230;BME280;8731;50.364;8.958;2023-01-04T21:07:40;100223.13;;;10.41;100.00
17230;BME280;8731;50.364;8.958;2023-01-04T21:12:03;100223.41;;;10.44;100.00
17230;BME280;8731;50.364;8.958;2023-01-04T21:16:27;100215.75;;;10.44;100.00
17230;BME280;8731;50.364;8.958;2023-01-04T21:20:49;100207.38;;;10.37;100.00
17230;BME280;8731;50.364;8.958;2023-01-04T21:25:12;100218.03;;;10.41;100.00
17230;BME280;8731;50.364;8.958;2023-01-04T21:29:34;100212.19;;;10.42;100.00
17230;BME280;8731;50.364;8.958;2023-01-04T21:33:58;100213.97;;;10.43;100.00
17230;BME280;8731;50.364;8.958;2023-01-04T21:38:21;100212.31;;;10.44;100.00
17230;BME280;8731;50.364;8.958;2023-01-04T21:42:43;100199.59;;;10.44;100.00
17230;BME280;8731;50.364;8.958;2023-01-04T21:47:06;100203.47;;;10.40;100.00
17230;BME280;8731;50.364;8.958;2023-01-04T21:51:29;100197.19;;;10.45;100.00
17230;BME280;8731;50.364;8.958;2023-01-04T21:55:56;100206.13;;;10.51;100.00
17230;BME280;8731;50.364;8.958;2023-01-04T22:00:19;100186.06;;;10.54;100.00
17230;BME280;8731;50.364;8.958;2023-01-04T22:04:42;100178.41;;;10.54;100.00
17230;BME280;8731;50.364;8.958;2023-01-04T22:09:06;100171.97;;;10.57;100.00
17230;BME280;8731;50.364;8.958;2023-01-04T22:13:28;100175.06;;;10.63;100.00
17230;BME280;8731;50.364;8.958;2023-01-04T22:17:50;100166.84;;;10.66;100.00
17230;BME280;8731;50.364;8.958;2023-01-04T22:22:13;100179.22;;;10.71;100.00
17230;BME280;8731;50.364;8.958;2023-01-04T22:26:37;100195.41;;;10.72;100.00
17230;BME280;8731;50.364;8.958;2023-01-04T22:31:02;100187.28;;;10.76;100.00
17230;BME280;8731;50.364;8.958;2023-01-04T22:35:26;100192.78;;;10.81;100.00
17230;BME280;8731;50.364;8.958;2023-01-04T22:39:48;100195.34;;;10.81;100.00
17230;BME280;8731;50.364;8.958;2023-01-04T22:44:12;100199.94;;;10.85;100.00
17230;BME280;8731;50.364;8.958;2023-01-04T22:48:34;100196.47;;;10.93;100.00
17230;BME280;8731;50.364;8.958;2023-01-04T22:52:57;100201.09;;;10.97;100.00
17230;BME280;8731;50.364;8.958;2023-01-04T22:57:19;100191.94;;;10.99;100.00
17230;BME280;8731;50.364;8.958;2023-01-04T23:01:43;100172.16;;;10.96;100.00
17230;BME280;8731;50.364;8.958;2023-01-04T23:06:06;100190.13;;;10.98;100.00
17230;BME280;8731;50.364;8.958;2023-01-04T23:10:30;100180.44;;;10.94;100.00
17230;BME280;8731;50.364;8.958;2023-01-04T23:14:54;100174.72;;;10.96;100.00
17230;BME280;8731;50.364;8.958;2023-01-04T23:19:18;100171.91;;;10.93;100.00
17230;BME280;8731;50.364;8.958;2023-01-04T23:23:41;100177.47;;;10.89;100.00
17230;BME280;8731;50.364;8.958;2023-01-04T23:28:04;100180.56;;;10.95;100.00
17230;BME280;8731;50.364;8.958;2023-01-04T23:32:26;100180.72;;;10.97;100.00
17230;BME280;8731;50.364;8.958;2023-01-04T23:36:52;100184.16;;;10.97;100.00
17230;BME280;8731;50.364;8.958;2023-01-04T23:41:15;100167.34;;;10.99;100.00